x

St. Augustine, Fl (sauf1) Weather Station

7:00pm - Tue 21st Oct 2014 All times are EDT. -4 hours from GMT.

  • Wind
    6mph, 7mph gusts
  • Air Temp 76°f
  • Sea Pressure 1013.6mb
  • St. Augustine, Fl
  • St. Augustine, Fl

More Historic Weather Station data

Upgrade to MSW Pro to gain access to the past 30 days of data for over 8000 Wavebouys and Weather Stations around the globe.

Join Pro

Comparision Forecast

View Surf forecast
   
Tue 10/21 7:00pm 6 7 mph 1013.6mb 76f
6:00pm 5 6 mph 1013.6mb 76f
5:00pm 6 7 mph 1013.7mb 76f
4:00pm 7 8 mph 1013.9mb 76f
3:00pm 10
mph
1013.9mb 76f
2:00pm 11 13 mph 1014.3mb 75f
1:00pm 9 10 mph 1014.9mb 75f
12:00pm 8 9 mph 1015.5mb 74f
11:00am 8 9 mph 1016mb 75f
10:00am 5 7 mph 1016.1mb 73f
9:00am 5 6 mph 1015.6mb 73f
8:00am 7 8 mph 1015.1mb 69f
7:00am 5 6 mph 1014.6mb 69f
6:00am 6 8 mph 1014.4mb 68f
5:00am 7
mph
1014.3mb 69f
4:00am 7
mph
1014.6mb 70f
3:00am 6 7 mph 1014.9mb 72f
2:00am 5 7 mph 1015.2mb 74f
1:00am 5 6 mph 1015.2mb 75f
12:00am 11 13 mph 1015.9mb 77f
Mon 10/20 11:00pm 13 14 mph 1015.9mb 77f
10:00pm 13 14 mph 1016.1mb 77f
9:00pm 13 14 mph 1015.9mb 77f
8:00pm 13 14 mph 1015.8mb 77f
7:00pm 11 14 mph 1015.5mb 77f
6:00pm 11 13 mph 1015.5mb 77f
5:00pm 11 13 mph 1015.8mb 77f
4:00pm 10 11 mph 1016.1mb 77f
3:00pm 11 14 mph 1016.5mb 77f
2:00pm 13 14 mph 1017mb 77f
1:00pm 8 9 mph 1018mb 76f
12:00pm 9
mph
1019mb 77f
11:00am 10 11 mph 1019.6mb 76f
10:00am 10
mph
1019.7mb 76f
9:00am 9 11 mph 1019.3mb 76f
8:00am 8 9 mph 1018.7mb 75f
7:00am 9 11 mph 1018.2mb 75f
6:00am 13 14 mph 1017.8mb 75f
5:00am 10 13 mph 1017.6mb 75f
4:00am 9 10 mph 1017.9mb 75f
3:00am 9 10 mph 1018.1mb 75f
2:00am 11 14 mph 1018.6mb 75f
1:00am 10 14 mph 1018.8mb 75f
12:00am 15 17 mph 1019.1mb 73f
Sun 10/19 11:00pm 15 16 mph 1019.3mb 73f
10:00pm 14 16 mph 1018.8mb 73f
9:00pm 18 20 mph 1018.4mb 73f
8:00pm 15 17 mph 1018.4mb 73f
7:00pm 16 18 mph 1018mb 73f
6:00pm 17 21 mph 1017.8mb 73f
5:00pm 17 18 mph 1017.5mb 73f
4:00pm 14 15 mph 1017.8mb 73f
3:00pm 15 17 mph 1017.7mb 73f
2:00pm 17 20 mph 1017.9mb 73f
1:00pm 17 20 mph 1018.4mb 74f
12:00pm 16 20 mph 1018.5mb 74f
11:00am 21 23 mph 1018.3mb 74f
10:00am 14 16 mph 1018.1mb 70f
9:00am 10 13 mph 1017.4mb 66f
8:00am 10 11 mph 1016.8mb 64f
7:00am 9 11 mph 1016.2mb 65f
6:00am 10 11 mph 1015.4mb 65f
5:00am 8 10 mph 1015.1mb 65f
4:00am 8 10 mph 1015.3mb 66f
3:00am 8 9 mph 1015.3mb 66f
2:00am 9 10 mph 1015.4mb 66f
1:00am 7 8 mph 1015.3mb 67f
12:00am 7 9 mph 1015mb 67f
Sat 10/18 11:00pm 8 10 mph 1014.9mb 69f
10:00pm 7 8 mph 1014.6mb 69f
9:00pm 6 7 mph 1014mb 71f
8:00pm 5 6 mph 1013.8mb 73f
7:00pm 5 6 mph 1013.2mb 77f
6:00pm 6 8 mph 1012.7mb 81f
5:00pm 7 9 mph 1012.6mb 81f
4:00pm 10 11 mph 1012.7mb 81f
3:00pm 7 8 mph 1013mb 80f
2:00pm 8 11 mph 1013.8mb 80f
1:00pm 9 11 mph 1014.8mb 78f
12:00pm 9 11 mph 1015.8mb 77f
11:00am 10 11 mph 1016.1mb 75f
10:00am 9 10 mph 1016.3mb 71f
9:00am 7 9 mph 1015.9mb 67f
8:00am 6 7 mph 1015.3mb 63f
7:00am 7 8 mph 1015.1mb 61f
6:00am 7 8 mph 1015mb 62f
5:00am 7 8 mph 1014.5mb 62f
4:00am 7 8 mph 1014.4mb 62f
3:00am 7 8 mph 1014.9mb 63f
2:00am 7 8 mph 1015.1mb 64f
1:00am 7 8 mph 1015.2mb 64f